createdAt,value
2023-03-29T00:01:35.264Z,94.82
2023-03-29T00:04:06.606Z,94.48
2023-03-29T00:06:33.832Z,94.51
2023-03-29T00:09:01.931Z,94.36
2023-03-29T00:11:28.893Z,94.42
2023-03-29T00:13:56.028Z,94.94
2023-03-29T00:16:22.920Z,95.35
2023-03-29T00:18:49.789Z,94.95
2023-03-29T00:21:16.619Z,94.99
2023-03-29T00:23:43.381Z,95.22
2023-03-29T00:26:10.904Z,95.22
2023-03-29T00:28:37.842Z,95.52
2023-03-29T00:31:06.857Z,95.74
2023-03-29T00:33:33.813Z,95.34
2023-03-29T00:36:01.903Z,95.27
2023-03-29T00:38:28.999Z,95.43
2023-03-29T00:40:56.003Z,95.66
2023-03-29T00:43:22.983Z,95.65
2023-03-29T00:45:49.795Z,95.97
2023-03-29T00:48:24.504Z,96.06
2023-03-29T00:50:57.292Z,96.19
2023-03-29T00:53:28.467Z,96.04
2023-03-29T00:56:01.725Z,96.15
2023-03-29T00:58:57.324Z,96.21
2023-03-29T01:01:34.265Z,96.06
2023-03-29T01:04:04.380Z,96.16
2023-03-29T01:06:31.540Z,96.62
2023-03-29T01:09:01.331Z,96.35
2023-03-29T01:11:31.052Z,95.98
2023-03-29T01:14:06.109Z,96.52
2023-03-29T01:16:33.502Z,96.44
2023-03-29T01:19:00.488Z,96.78
2023-03-29T01:21:29.387Z,96.53
2023-03-29T01:24:18.257Z,96.44
2023-03-29T01:26:53.924Z,96.59
2023-03-29T01:29:20.656Z,96.36
2023-03-29T01:31:51.258Z,96.36
2023-03-29T01:34:35.486Z,96.61
2023-03-29T01:37:09.370Z,96.57
2023-03-29T01:39:36.226Z,96.77
2023-03-29T01:42:16.241Z,97.10
2023-03-29T01:45:21.952Z,97.28
2023-03-29T01:48:01.160Z,97.17
2023-03-29T01:51:10.245Z,97.06
2023-03-29T01:53:44.369Z,97.07
2023-03-29T01:56:13.323Z,97.38
2023-03-29T01:58:42.811Z,97.25
2023-03-29T02:01:10.551Z,97.55
2023-03-29T02:03:42.662Z,97.52
2023-03-29T02:06:13.067Z,97.45
2023-03-29T02:08:40.825Z,97.73
2023-03-29T02:11:07.926Z,97.57
2023-03-29T02:13:35.913Z,97.64
2023-03-29T02:16:12.342Z,97.98
2023-03-29T02:18:40.504Z,98.00
2023-03-29T02:21:07.786Z,97.95
2023-03-29T02:23:38.924Z,97.71
2023-03-29T02:26:09.028Z,97.43
2023-03-29T02:28:36.256Z,97.73
2023-03-29T02:31:08.233Z,97.36
2023-03-29T02:33:58.848Z,97.81
2023-03-29T02:36:32.275Z,97.32
2023-03-29T02:38:59.459Z,97.53
2023-03-29T02:41:26.453Z,97.47
2023-03-29T02:43:53.206Z,97.44
2023-03-29T02:46:20.063Z,97.56
2023-03-29T02:48:47.047Z,97.90
2023-03-29T02:51:19.829Z,98.17
2023-03-29T02:54:00.245Z,98.31
2023-03-29T02:56:27.108Z,98.22
2023-03-29T02:58:53.890Z,98.42
2023-03-29T03:01:20.807Z,98.21
2023-03-29T03:03:48.299Z,97.79
2023-03-29T03:06:15.348Z,97.94
2023-03-29T03:08:42.263Z,97.98
2023-03-29T03:11:09.032Z,97.91
2023-03-29T03:13:35.889Z,98.18
2023-03-29T03:16:03.296Z,98.07
2023-03-29T03:18:30.162Z,97.83
2023-03-29T03:21:02.083Z,98.25
2023-03-29T03:23:29.635Z,98.02
2023-03-29T03:25:56.697Z,98.25
2023-03-29T03:28:24.393Z,97.92
2023-03-29T03:30:51.230Z,97.93
2023-03-29T03:33:19.279Z,98.01
2023-03-29T03:35:46.620Z,98.13
2023-03-29T03:38:13.644Z,98.13
2023-03-29T03:40:40.442Z,98.25
2023-03-29T03:43:07.225Z,98.42
2023-03-29T03:45:34.433Z,98.07
2023-03-29T03:48:01.269Z,98.46
2023-03-29T03:50:28.185Z,98.27
2023-03-29T03:52:54.984Z,97.96
2023-03-29T03:55:22.147Z,98.05
2023-03-29T03:57:48.982Z,98.39
2023-03-29T04:00:23.005Z,98.15
2023-03-29T04:02:49.961Z,98.20
2023-03-29T04:05:17.290Z,98.19
2023-03-29T04:07:44.114Z,98.01
2023-03-29T04:10:11.231Z,98.38
2023-03-29T04:12:38.243Z,98.45
2023-03-29T04:15:05.607Z,98.26
2023-03-29T04:17:32.487Z,98.71
2023-03-29T04:20:01.429Z,98.50
2023-03-29T04:22:28.437Z,98.32
2023-03-29T04:24:55.426Z,98.36
2023-03-29T04:27:22.275Z,98.54
2023-03-29T04:29:49.118Z,98.77
2023-03-29T04:32:15.929Z,97.90
2023-03-29T04:34:42.749Z,98.58
2023-03-29T04:37:10.752Z,98.61
2023-03-29T04:39:38.005Z,98.10
2023-03-29T04:42:05.490Z,98.34
2023-03-29T04:44:35.248Z,98.09
2023-03-29T04:47:02.228Z,98.20
2023-03-29T04:49:29.125Z,97.63
2023-03-29T04:51:56.021Z,97.50
2023-03-29T04:54:22.975Z,96.36
2023-03-29T04:56:49.861Z,96.44
2023-03-29T04:59:16.892Z,95.26
2023-03-29T05:01:43.758Z,94.07
2023-03-29T05:04:12.662Z,92.75
2023-03-29T05:06:40.124Z,91.83
2023-03-29T05:09:07.391Z,91.30
2023-03-29T05:11:34.313Z,90.50
2023-03-29T05:14:07.325Z,89.23
2023-03-29T05:16:34.727Z,88.69
2023-03-29T05:19:01.584Z,88.40
2023-03-29T05:21:31.231Z,87.31
2023-03-29T05:23:58.174Z,86.38
2023-03-29T05:26:25.569Z,86.11
2023-03-29T05:28:52.459Z,85.47
2023-03-29T05:31:20.020Z,84.67
2023-03-29T05:33:50.899Z,84.37
2023-03-29T05:36:19.246Z,83.95
2023-03-29T05:38:46.889Z,84.06
2023-03-29T05:41:14.554Z,83.28
2023-03-29T05:43:41.952Z,83.19
2023-03-29T05:46:09.164Z,83.07
2023-03-29T05:48:36.457Z,82.43
2023-03-29T05:51:03.594Z,82.29
2023-03-29T05:53:30.696Z,81.67
2023-03-29T05:55:57.465Z,81.70
2023-03-29T05:58:26.676Z,80.13
2023-03-29T06:00:53.585Z,79.49
2023-03-29T06:03:25.614Z,79.41
2023-03-29T06:05:57.782Z,78.57
2023-03-29T06:08:26.186Z,77.82
2023-03-29T06:11:00.665Z,77.68
2023-03-29T06:13:29.349Z,76.66
2023-03-29T06:15:56.144Z,76.61
2023-03-29T06:18:23.543Z,76.84
2023-03-29T06:20:53.593Z,76.83
2023-03-29T06:23:20.613Z,75.58
2023-03-29T06:25:47.854Z,74.62
2023-03-29T06:28:14.845Z,74.99
2023-03-29T06:30:42.128Z,74.20
2023-03-29T06:33:09.700Z,72.60
2023-03-29T06:35:37.225Z,73.17
2023-03-29T06:38:04.872Z,72.07
2023-03-29T06:40:31.716Z,70.98
2023-03-29T06:42:59.400Z,70.40
2023-03-29T06:45:29.315Z,69.04
2023-03-29T06:47:56.887Z,67.86
2023-03-29T06:50:23.917Z,67.19
2023-03-29T06:52:50.728Z,65.91
2023-03-29T06:55:18.551Z,65.01
2023-03-29T06:57:45.374Z,63.98
2023-03-29T07:00:19.337Z,63.07
2023-03-29T07:02:46.624Z,61.65
2023-03-29T07:05:13.874Z,60.59
2023-03-29T07:07:57.530Z,60.32
2023-03-29T07:10:32.313Z,59.66
2023-03-29T07:13:02.453Z,58.46
2023-03-29T07:15:29.549Z,58.25
2023-03-29T07:17:57.666Z,56.94
2023-03-29T07:20:25.821Z,56.20
2023-03-29T07:22:53.047Z,55.81
2023-03-29T07:25:21.526Z,54.90
2023-03-29T07:27:48.468Z,54.82
2023-03-29T07:30:21.175Z,53.53
2023-03-29T07:32:48.155Z,52.65
2023-03-29T07:35:15.306Z,51.86
2023-03-29T07:37:44.497Z,50.72
2023-03-29T07:40:16.480Z,50.26
2023-03-29T07:42:44.371Z,50.32
2023-03-29T07:45:11.836Z,49.75
2023-03-29T07:47:38.884Z,47.57
2023-03-29T07:50:07.550Z,48.24
2023-03-29T07:52:35.837Z,46.53
2023-03-29T07:55:02.617Z,45.94
2023-03-29T07:57:29.534Z,46.47
2023-03-29T07:59:56.441Z,43.89
2023-03-29T08:02:23.422Z,44.78
2023-03-29T08:04:50.315Z,43.67
2023-03-29T08:07:20.042Z,44.27
2023-03-29T08:09:47.003Z,42.85
2023-03-29T08:12:13.853Z,41.49
2023-03-29T08:14:40.622Z,40.53
2023-03-29T08:17:07.623Z,41.61
2023-03-29T08:19:34.528Z,40.63
2023-03-29T08:22:01.389Z,39.78
2023-03-29T08:24:28.416Z,39.62
2023-03-29T08:26:55.537Z,39.51
2023-03-29T08:29:22.530Z,37.76
2023-03-29T08:31:49.403Z,38.40
2023-03-29T08:34:16.311Z,37.68
2023-03-29T08:36:43.151Z,36.82
2023-03-29T08:39:10.323Z,36.16
2023-03-29T08:42:26.658Z,36.20
2023-03-29T08:45:12.066Z,35.85
2023-03-29T08:48:00.938Z,35.34
2023-03-29T08:50:34.409Z,34.44
2023-03-29T08:53:04.745Z,33.83
2023-03-29T08:55:45.449Z,33.72
2023-03-29T08:58:19.094Z,33.08
2023-03-29T09:00:59.382Z,32.54
2023-03-29T09:03:54.100Z,32.28
2023-03-29T09:06:22.162Z,32.38
2023-03-29T09:08:50.790Z,31.96
2023-03-29T09:11:23.723Z,31.41
2023-03-29T09:14:29.498Z,30.76
2023-03-29T09:17:33.564Z,30.10
2023-03-29T09:20:18.943Z,31.10
2023-03-29T09:22:58.046Z,30.96
2023-03-29T09:25:26.194Z,30.88
2023-03-29T09:28:19.272Z,28.95
2023-03-29T09:31:00.144Z,29.47
2023-03-29T09:33:31.657Z,29.58
2023-03-29T09:36:02.662Z,29.83
2023-03-29T09:38:31.115Z,30.19
2023-03-29T09:41:06.065Z,28.91
2023-03-29T09:43:36.229Z,29.52
2023-03-29T09:46:07.122Z,30.23
2023-03-29T09:48:37.877Z,29.18
2023-03-29T09:51:05.625Z,29.02
2023-03-29T09:53:32.650Z,27.82
2023-03-29T09:55:59.732Z,29.45
2023-03-29T09:58:27.689Z,28.83
2023-03-29T10:00:58.353Z,27.76
2023-03-29T10:03:27.525Z,27.73
2023-03-29T10:05:55.718Z,28.08
2023-03-29T10:08:30.060Z,28.28
2023-03-29T10:10:57.749Z,28.70
2023-03-29T10:13:32.382Z,28.46
2023-03-29T10:16:05.959Z,27.77
2023-03-29T10:18:33.333Z,28.29
2023-03-29T10:21:02.816Z,28.10
2023-03-29T10:23:34.128Z,27.91
2023-03-29T10:26:04.313Z,28.00
2023-03-29T10:28:31.427Z,26.67
2023-03-29T10:30:59.959Z,26.74
2023-03-29T10:33:34.172Z,27.42
2023-03-29T10:36:01.095Z,27.40
2023-03-29T10:38:28.766Z,27.88
2023-03-29T10:41:02.896Z,27.00
2023-03-29T10:43:36.152Z,26.32
2023-03-29T10:46:13.443Z,26.90
2023-03-29T10:48:40.469Z,27.26
2023-03-29T10:51:07.678Z,27.46
2023-03-29T10:53:37.778Z,26.87
2023-03-29T10:56:08.249Z,27.70
2023-03-29T10:58:56.768Z,26.61
2023-03-29T11:01:48.344Z,27.34
2023-03-29T11:04:20.939Z,27.23
2023-03-29T11:06:56.765Z,27.91
2023-03-29T11:09:30.265Z,27.19
2023-03-29T11:12:12.266Z,27.06
2023-03-29T11:15:12.890Z,26.71
2023-03-29T11:18:06.020Z,26.81
2023-03-29T11:20:32.760Z,26.57
2023-03-29T11:23:22.553Z,26.64
2023-03-29T11:26:31.188Z,27.10
2023-03-29T11:29:05.348Z,25.07
2023-03-29T11:31:44.186Z,25.76
2023-03-29T11:34:20.270Z,26.17
2023-03-29T11:36:50.668Z,26.95
2023-03-29T11:39:39.510Z,28.75
2023-03-29T11:42:09.591Z,29.34
2023-03-29T11:44:36.360Z,30.33
2023-03-29T11:47:15.069Z,31.04
2023-03-29T11:49:43.482Z,31.37
2023-03-29T11:52:19.445Z,32.34
2023-03-29T11:54:46.167Z,33.04
2023-03-29T11:57:27.554Z,33.34
2023-03-29T12:00:19.727Z,33.33
2023-03-29T12:02:50.116Z,31.27
2023-03-29T12:05:25.508Z,31.14
2023-03-29T12:08:10.389Z,30.20
2023-03-29T12:10:37.967Z,30.70
2023-03-29T12:13:19.347Z,31.20
2023-03-29T12:15:58.848Z,31.34
2023-03-29T12:18:35.752Z,32.58
2023-03-29T12:21:04.119Z,32.99
2023-03-29T12:23:32.013Z,33.58
2023-03-29T12:26:17.366Z,33.95
2023-03-29T12:29:29.270Z,35.20
2023-03-29T12:31:59.569Z,37.39
2023-03-29T12:34:47.987Z,37.87
2023-03-29T12:37:27.450Z,37.75
2023-03-29T12:40:10.766Z,38.70
2023-03-29T12:43:02.434Z,38.64
2023-03-29T12:45:38.423Z,39.96
2023-03-29T12:48:06.537Z,41.53
2023-03-29T12:50:57.337Z,41.72
2023-03-29T12:53:38.887Z,42.32
2023-03-29T12:56:12.460Z,40.94
2023-03-29T12:58:39.545Z,40.70
2023-03-29T13:01:26.755Z,39.30
2023-03-29T13:03:59.825Z,37.61
2023-03-29T13:06:31.832Z,36.45
2023-03-29T13:09:23.058Z,36.74
2023-03-29T13:11:53.796Z,36.71
2023-03-29T13:14:21.259Z,36.47
2023-03-29T13:16:48.066Z,35.42
2023-03-29T13:19:20.590Z,34.34
2023-03-29T13:21:56.058Z,33.54
2023-03-29T13:24:50.146Z,34.00
2023-03-29T13:27:56.294Z,35.28
2023-03-29T13:31:00.549Z,35.79
2023-03-29T13:33:55.534Z,37.36
2023-03-29T13:36:33.164Z,38.28
2023-03-29T13:39:05.380Z,40.02
2023-03-29T13:41:39.105Z,40.20
2023-03-29T13:44:27.871Z,39.76
2023-03-29T13:47:19.508Z,40.50
2023-03-29T13:49:58.171Z,40.62
2023-03-29T13:52:42.926Z,41.19
2023-03-29T13:55:21.977Z,42.63
2023-03-29T13:58:16.274Z,42.28
2023-03-29T14:00:48.361Z,42.87
2023-03-29T14:03:16.262Z,41.84
2023-03-29T14:05:47.772Z,41.26
2023-03-29T14:08:26.727Z,41.53
2023-03-29T14:10:53.652Z,42.00
2023-03-29T14:13:24.502Z,43.60
2023-03-29T14:15:57.350Z,44.09
2023-03-29T14:18:25.703Z,45.03
2023-03-29T14:20:55.098Z,45.45
2023-03-29T14:23:33.279Z,46.48
2023-03-29T14:26:22.584Z,47.00
2023-03-29T14:28:51.282Z,47.84
2023-03-29T14:31:23.322Z,49.10
2023-03-29T14:33:53.750Z,49.71
2023-03-29T14:36:21.326Z,51.22
2023-03-29T14:38:53.508Z,51.49
2023-03-29T14:41:22.038Z,52.31
2023-03-29T14:43:50.755Z,52.06
2023-03-29T14:46:18.937Z,52.85
2023-03-29T14:48:45.883Z,52.70
2023-03-29T14:51:12.613Z,53.73
2023-03-29T14:53:39.715Z,54.52
2023-03-29T14:56:06.955Z,54.96
2023-03-29T14:58:36.846Z,54.60
2023-03-29T15:01:13.567Z,55.49
2023-03-29T15:04:06.967Z,56.18
2023-03-29T15:06:44.294Z,56.01
2023-03-29T15:09:23.685Z,56.53
2023-03-29T15:11:54.619Z,57.75
2023-03-29T15:14:21.664Z,56.95
2023-03-29T15:16:48.558Z,57.27
2023-03-29T15:19:22.026Z,57.91
2023-03-29T15:21:49.671Z,58.04
2023-03-29T15:24:27.714Z,58.25
2023-03-29T15:27:01.440Z,58.38
2023-03-29T15:29:35.221Z,59.21
2023-03-29T15:32:02.307Z,59.20
2023-03-29T15:34:32.863Z,60.34
2023-03-29T15:37:00.214Z,59.97
2023-03-29T15:39:27.809Z,60.76
2023-03-29T15:41:55.389Z,61.18
2023-03-29T15:44:33.198Z,60.80
2023-03-29T15:47:00.409Z,60.61
2023-03-29T15:49:27.319Z,61.78
2023-03-29T15:51:54.409Z,61.89
2023-03-29T15:54:21.982Z,61.45
2023-03-29T15:56:55.701Z,62.14
2023-03-29T15:59:22.998Z,61.57
2023-03-29T16:01:49.899Z,62.07
2023-03-29T16:04:18.328Z,62.75
2023-03-29T16:06:46.977Z,63.06
2023-03-29T16:09:13.758Z,63.37
2023-03-29T16:11:41.310Z,63.70
2023-03-29T16:14:27.518Z,64.31
2023-03-29T16:17:00.536Z,64.37
2023-03-29T16:19:28.248Z,64.46
2023-03-29T16:21:55.449Z,64.83
2023-03-29T16:24:24.278Z,66.54
2023-03-29T16:26:53.910Z,66.54
2023-03-29T16:29:22.458Z,66.79
2023-03-29T16:31:49.407Z,67.64
2023-03-29T16:34:19.250Z,67.83
2023-03-29T16:36:47.544Z,68.57
2023-03-29T16:39:14.320Z,69.09
2023-03-29T16:41:41.515Z,69.30
2023-03-29T16:44:08.453Z,70.19
2023-03-29T16:46:35.485Z,70.50
2023-03-29T16:49:02.558Z,70.89
2023-03-29T16:51:29.377Z,71.40
2023-03-29T16:53:56.958Z,71.70
2023-03-29T16:56:23.870Z,71.58
2023-03-29T16:58:50.677Z,72.83
2023-03-29T17:01:17.450Z,73.73
2023-03-29T17:03:44.358Z,73.79
2023-03-29T17:06:11.487Z,74.07
2023-03-29T17:08:38.774Z,74.57
2023-03-29T17:11:06.901Z,75.43
2023-03-29T17:13:33.777Z,75.86
2023-03-29T17:16:00.918Z,77.34
2023-03-29T17:18:28.240Z,77.73
2023-03-29T17:20:58.876Z,79.10
2023-03-29T17:23:25.845Z,79.44
2023-03-29T17:25:54.675Z,79.68
2023-03-29T17:28:21.918Z,80.01
2023-03-29T17:30:48.747Z,81.02
2023-03-29T17:33:15.551Z,81.11
2023-03-29T17:35:45.260Z,81.87
2023-03-29T17:38:12.163Z,82.04
2023-03-29T17:40:39.367Z,81.89
2023-03-29T17:43:06.150Z,82.88
2023-03-29T17:45:33.232Z,83.88
2023-03-29T17:48:00.054Z,83.65
2023-03-29T17:50:27.152Z,83.50
2023-03-29T17:52:53.979Z,84.88
2023-03-29T17:55:21.123Z,84.33
2023-03-29T17:57:49.104Z,84.32
2023-03-29T18:00:16.564Z,84.79
2023-03-29T18:02:43.490Z,84.30
2023-03-29T18:05:10.421Z,85.99
2023-03-29T18:07:37.338Z,85.36
2023-03-29T18:10:04.698Z,85.72
2023-03-29T18:12:31.751Z,85.74
2023-03-29T18:14:58.955Z,86.89
2023-03-29T18:17:27.429Z,86.69
2023-03-29T18:19:54.383Z,85.79
2023-03-29T18:22:21.505Z,85.50
2023-03-29T18:24:49.311Z,86.53
2023-03-29T18:27:16.136Z,86.67
2023-03-29T18:29:44.116Z,85.58
2023-03-29T18:32:11.195Z,85.79
2023-03-29T18:34:39.442Z,85.28
2023-03-29T18:37:06.430Z,86.37
2023-03-29T18:39:34.890Z,86.36
2023-03-29T18:42:02.130Z,86.42
2023-03-29T18:44:29.335Z,86.84
2023-03-29T18:46:56.373Z,86.34
2023-03-29T18:49:25.757Z,87.31
2023-03-29T18:51:52.620Z,87.10
2023-03-29T18:54:19.419Z,87.32
2023-03-29T18:56:46.235Z,88.51
2023-03-29T18:59:13.049Z,88.18
2023-03-29T19:01:39.871Z,88.88
2023-03-29T19:04:06.714Z,89.52
2023-03-29T19:06:33.581Z,90.07
2023-03-29T19:09:02.303Z,90.78
2023-03-29T19:11:31.952Z,90.63
2023-03-29T19:13:58.743Z,90.75
2023-03-29T19:16:25.869Z,91.02
2023-03-29T19:18:52.741Z,91.84
2023-03-29T19:21:19.484Z,91.91
2023-03-29T19:23:46.307Z,92.30
2023-03-29T19:26:13.429Z,92.69
2023-03-29T19:28:40.508Z,92.65
2023-03-29T19:31:07.450Z,93.25
2023-03-29T19:33:34.305Z,93.69
2023-03-29T19:36:01.665Z,93.41
2023-03-29T19:38:28.714Z,93.38
2023-03-29T19:40:55.464Z,93.14
2023-03-29T19:43:22.284Z,93.81
2023-03-29T19:45:49.817Z,93.28
2023-03-29T19:48:22.362Z,94.38
2023-03-29T19:50:50.578Z,93.70
2023-03-29T19:53:17.440Z,92.59
2023-03-29T19:55:45.423Z,93.65
2023-03-29T19:58:12.620Z,92.69
2023-03-29T20:00:39.487Z,93.37
2023-03-29T20:03:09.913Z,92.58
2023-03-29T20:05:37.607Z,93.35
2023-03-29T20:08:04.418Z,94.19
2023-03-29T20:10:31.565Z,93.92
2023-03-29T20:12:58.379Z,93.32
2023-03-29T20:15:26.040Z,92.73
2023-03-29T20:17:54.488Z,93.23
2023-03-29T20:20:24.139Z,93.62
2023-03-29T20:22:54.097Z,93.40
2023-03-29T20:25:21.368Z,93.86
2023-03-29T20:27:49.555Z,92.85
2023-03-29T20:30:16.508Z,92.49
2023-03-29T20:32:43.478Z,93.84
2023-03-29T20:35:11.671Z,93.82
2023-03-29T20:37:38.495Z,93.28
2023-03-29T20:40:08.286Z,93.04
2023-03-29T20:42:36.787Z,93.45
2023-03-29T20:45:04.428Z,93.55
2023-03-29T20:47:31.537Z,92.38
2023-03-29T20:49:58.894Z,92.41
2023-03-29T20:52:25.707Z,91.99
2023-03-29T20:54:52.642Z,92.94
2023-03-29T20:57:21.012Z,92.33
2023-03-29T20:59:49.427Z,90.76
2023-03-29T21:02:21.938Z,91.56
2023-03-29T21:04:52.539Z,91.16
2023-03-29T21:07:20.113Z,90.81
2023-03-29T21:09:48.496Z,91.53
2023-03-29T21:12:15.310Z,90.44
2023-03-29T21:14:42.050Z,91.52
2023-03-29T21:17:09.533Z,91.26
2023-03-29T21:19:38.237Z,91.42
2023-03-29T21:22:05.453Z,92.18
2023-03-29T21:24:33.185Z,92.29
2023-03-29T21:27:00.667Z,91.48
2023-03-29T21:29:27.652Z,91.59
2023-03-29T21:31:54.750Z,92.19
2023-03-29T21:34:21.848Z,92.66
2023-03-29T21:36:49.393Z,92.33
2023-03-29T21:39:16.352Z,92.61
2023-03-29T21:41:43.209Z,92.83
2023-03-29T21:44:10.064Z,91.71
2023-03-29T21:46:36.931Z,91.63
2023-03-29T21:49:03.792Z,91.72
2023-03-29T21:51:30.547Z,92.63
2023-03-29T21:53:57.330Z,91.98
2023-03-29T21:56:24.143Z,91.35
2023-03-29T21:58:51.069Z,91.59
2023-03-29T22:01:17.996Z,92.43
2023-03-29T22:03:44.883Z,92.51
2023-03-29T22:06:12.993Z,92.28
2023-03-29T22:08:39.859Z,91.59
2023-03-29T22:11:11.061Z,92.21
2023-03-29T22:13:38.000Z,91.74
2023-03-29T22:16:05.363Z,91.64
2023-03-29T22:18:49.299Z,91.16
2023-03-29T22:21:18.461Z,91.47
2023-03-29T22:23:47.590Z,91.86
2023-03-29T22:26:15.087Z,91.33
2023-03-29T22:28:41.892Z,91.14
2023-03-29T22:31:10.576Z,91.02
2023-03-29T22:33:37.502Z,91.01
2023-03-29T22:36:15.676Z,92.10
2023-03-29T22:38:42.860Z,92.06
2023-03-29T22:41:09.794Z,92.00
2023-03-29T22:43:37.097Z,91.81
2023-03-29T22:46:05.357Z,91.68
2023-03-29T22:48:32.299Z,89.97
2023-03-29T22:50:59.291Z,91.50
2023-03-29T22:53:26.122Z,90.29
2023-03-29T22:55:53.538Z,90.12
2023-03-29T22:58:20.748Z,89.63
2023-03-29T23:00:48.027Z,90.24
2023-03-29T23:03:14.889Z,89.06
2023-03-29T23:05:41.683Z,88.94
2023-03-29T23:08:08.439Z,89.06
2023-03-29T23:10:35.458Z,89.44
2023-03-29T23:13:15.718Z,90.78
2023-03-29T23:15:45.313Z,90.31
2023-03-29T23:18:24.265Z,90.35
2023-03-29T23:20:52.645Z,91.23
2023-03-29T23:23:19.725Z,91.19
2023-03-29T23:25:47.579Z,92.27
2023-03-29T23:28:15.144Z,91.91
2023-03-29T23:30:42.021Z,92.16
2023-03-29T23:33:10.536Z,94.36
2023-03-29T23:35:37.896Z,93.38
2023-03-29T23:38:05.831Z,94.57
2023-03-29T23:40:33.275Z,93.77
2023-03-29T23:43:00.597Z,95.25
2023-03-29T23:45:30.124Z,95.80
2023-03-29T23:47:57.490Z,94.84
2023-03-29T23:50:24.363Z,96.29
2023-03-29T23:52:51.774Z,95.47
2023-03-29T23:55:19.562Z,94.88
2023-03-29T23:57:46.441Z,96.28
